Time;durP1;ratioP1;P1;durP2;ratioP2;P2;SDS_P1;SDS_P2;PMS_P1;PMS_P2;Temp;Humidity;BMP_temperature;BMP_pressure;BME280_temperature;BME280_humidity;BME280_pressure;Samples;Min_cycle;Max_cycle;Signal;HPM_P1;HPM_P2
2023/12/29 00:00:54;;;;;;;0.20;0.20;;;;;;;11.61;72.00;100695.66;5088532;28;20032;-79
2023/12/29 00:03:20;;;;;;;0.10;0.10;;;;;;;11.51;72.53;100715.38;5084867;28;20027;-78
2023/12/29 00:05:46;;;;;;;0.10;0.10;;;;;;;11.49;72.53;100712.75;5080299;28;20029;-80
2023/12/29 00:08:12;;;;;;;0.15;0.15;;;;;;;11.52;72.74;100710.94;5078531;28;20332;-79
2023/12/29 00:10:39;;;;;;;0.10;0.10;;;;;;;11.53;72.77;100696.78;5078453;28;20132;-80
2023/12/29 00:13:05;;;;;;;0.28;0.28;;;;;;;11.50;72.61;100679.13;5074837;28;20131;-80
2023/12/29 00:15:31;;;;;;;0.10;0.10;;;;;;;11.51;72.27;100698.59;5075793;28;20036;-80
2023/12/29 00:17:57;;;;;;;0.10;0.10;;;;;;;11.46;72.13;100688.97;5087398;28;20020;-81
2023/12/29 00:20:24;;;;;;;3.20;1.60;;;;;;;11.59;71.48;100689.53;5082867;28;20028;-81
2023/12/29 00:22:50;;;;;;;0.10;0.10;;;;;;;11.61;71.18;100665.59;5080838;28;20434;-82
2023/12/29 00:25:16;;;;;;;0.30;0.30;;;;;;;11.51;70.90;100702.09;5089089;28;20032;-78
2023/12/29 00:27:42;;;;;;;0.10;0.10;;;;;;;11.65;70.12;100670.78;5083733;28;20449;-79
2023/12/29 00:30:09;;;;;;;0.15;0.15;;;;;;;11.63;70.02;100672.59;5079527;28;20028;-79
2023/12/29 00:32:35;;;;;;;0.10;0.10;;;;;;;11.72;69.40;100671.47;5083248;28;20099;-80
2023/12/29 00:35:01;;;;;;;0.10;0.10;;;;;;;11.80;69.55;100665.94;5082994;28;20418;-79
2023/12/29 00:37:27;;;;;;;0.10;0.10;;;;;;;11.91;68.79;100660.34;5084372;28;20092;-80
2023/12/29 00:39:53;;;;;;;3.20;2.10;;;;;;;11.78;69.38;100700.50;5079271;28;20111;-81
2023/12/29 00:42:20;;;;;;;0.10;0.10;;;;;;;11.91;68.79;100669.19;5083943;28;20035;-80
2023/12/29 00:44:46;;;;;;;0.30;0.30;;;;;;;11.87;68.69;100653.38;5082581;28;20484;-80
2023/12/29 00:47:12;;;;;;;0.70;0.70;;;;;;;12.02;68.60;100673.34;5082710;28;20084;-80
2023/12/29 00:49:41;;;;;;;0.10;0.10;;;;;;;11.94;68.33;100685.03;5078691;28;20036;-81
2023/12/29 00:52:07;;;;;;;3.70;1.20;;;;;;;11.92;68.68;100684.19;5085289;28;20037;-80
2023/12/29 00:54:33;;;;;;;0.20;0.20;;;;;;;11.97;68.69;100687.63;5096710;28;20035;-78
2023/12/29 00:56:59;;;;;;;0.10;0.10;;;;;;;11.96;68.80;100672.63;5100862;28;20020;-80
2023/12/29 00:59:25;;;;;;;0.20;0.20;;;;;;;11.98;68.72;100678.72;5092296;28;20089;-79
2023/12/29 01:01:51;;;;;;;0.10;0.10;;;;;;;11.90;69.19;100701.97;5087237;28;20037;-79
2023/12/29 01:04:18;;;;;;;0.10;0.10;;;;;;;11.81;69.19;100673.88;5084416;28;20031;-81
2023/12/29 01:06:44;;;;;;;0.10;0.10;;;;;;;11.87;69.27;100679.94;5085660;28;20087;-80
2023/12/29 01:09:11;;;;;;;0.13;0.13;;;;;;;11.91;69.13;100669.19;5085957;28;20483;-80
2023/12/29 01:11:38;;;;;;;0.20;0.20;;;;;;;11.86;68.87;100681.69;5091247;28;20032;-80
2023/12/29 01:14:05;;;;;;;0.50;0.50;;;;;;;11.78;69.55;100679.25;5090474;28;20079;-81
2023/12/29 01:16:31;;;;;;;1.42;1.33;;;;;;;11.86;68.59;100676.38;5085414;28;20028;-80
2023/12/29 01:18:58;;;;;;;0.10;0.10;;;;;;;11.81;69.48;100670.34;5075890;28;20433;-80
2023/12/29 01:21:24;;;;;;;0.10;0.10;;;;;;;11.84;69.60;100691.50;5080242;28;20032;-80
2023/12/29 01:23:50;;;;;;;0.47;0.47;;;;;;;11.89;69.21;100678.13;5077642;28;20398;-81
2023/12/29 01:26:16;;;;;;;0.35;0.35;;;;;;;11.86;69.11;100664.91;5081258;28;20028;-81
2023/12/29 01:28:42;;;;;;;2.45;1.98;;;;;;;11.85;68.47;100682.63;5085396;28;20032;-80
2023/12/29 01:31:11;;;;;;;0.40;0.40;;;;;;;11.86;68.78;100689.66;5081670;28;20127;-79
2023/12/29 01:33:37;;;;;;;0.15;0.15;;;;;;;11.82;69.39;100662.34;5084621;28;20081;-80
2023/12/29 01:36:03;;;;;;;0.10;0.10;;;;;;;11.92;68.79;100678.00;5089700;28;20056;-79
2023/12/29 01:38:29;;;;;;;0.10;0.10;;;;;;;11.98;68.75;100681.38;5088882;28;20016;-79
2023/12/29 01:40:56;;;;;;;0.10;0.10;;;;;;;11.90;68.62;100672.75;5082871;28;20372;-80
2023/12/29 01:43:22;;;;;;;0.10;0.10;;;;;;;12.13;68.47;100677.41;5071490;28;20550;-81
2023/12/29 01:45:48;;;;;;;0.10;0.10;;;;;;;11.94;68.44;100678.84;5091161;28;20095;-79
2023/12/29 01:48:14;;;;;;;0.10;0.10;;;;;;;11.66;70.28;100682.25;5098692;28;20501;-81
2023/12/29 01:50:41;;;;;;;0.10;0.10;;;;;;;11.89;69.45;100656.88;5089026;28;20113;-81
2023/12/29 01:53:07;;;;;;;2.85;1.33;;;;;;;11.74;70.09;100652.84;5085706;28;20476;-82
2023/12/29 01:55:34;;;;;;;4.22;1.17;;;;;;;11.82;69.97;100677.41;5081552;28;20066;-79
2023/12/29 01:58:01;;;;;;;0.10;0.10;;;;;;;11.67;71.18;100664.56;5085274;28;20054;-81
2023/12/29 02:00:28;;;;;;;0.50;0.50;;;;;;;11.82;71.12;100698.63;5086772;28;20517;-80
2023/12/29 02:02:54;;;;;;;0.10;0.10;;;;;;;11.69;71.17;100679.53;5083171;28;20025;-81
2023/12/29 02:05:22;;;;;;;0.10;0.10;;;;;;;11.60;71.60;100693.91;5077674;28;20039;-81
2023/12/29 02:07:51;;;;;;;0.10;0.10;;;;;;;11.63;71.48;100708.88;5082626;28;20016;-79
2023/12/29 02:10:19;;;;;;;0.10;0.10;;;;;;;11.57;71.70;100688.69;5093436;28;20036;-81
2023/12/29 02:12:49;;;;;;;0.20;0.20;;;;;;;11.57;72.13;100693.97;5086366;28;20047;-81
2023/12/29 02:15:16;;;;;;;0.35;0.35;;;;;;;11.58;71.72;100685.13;5085636;28;20032;-81
2023/12/29 02:17:52;;;;;;;0.10;0.10;;;;;;;11.56;72.26;100680.75;5082357;28;20027;-81
2023/12/29 02:20:19;;;;;;;0.10;0.10;;;;;;;11.58;72.52;100710.78;5079583;28;20078;-81
2023/12/29 02:22:45;;;;;;;0.10;0.10;;;;;;;11.66;72.64;100687.56;5095508;28;20032;-82
2023/12/29 02:25:12;;;;;;;0.10;0.10;;;;;;;11.61;72.38;100700.97;5091987;28;20077;-81
2023/12/29 02:32:59;;;;;;;0.22;0.22;;;;;;;11.54;73.89;100694.09;5118649;27;20380;-80
2023/12/29 02:35:28;;;;;;;0.30;0.30;;;;;;;11.51;73.93;100688.84;5115149;28;20107;-80
2023/12/29 02:37:56;;;;;;;0.30;0.30;;;;;;;11.56;73.95;100702.84;5113996;28;20027;-79
2023/12/29 02:40:22;;;;;;;0.10;0.10;;;;;;;11.52;74.25;100684.41;5111611;28;20027;-79
2023/12/29 02:42:49;;;;;;;0.15;0.15;;;;;;;11.49;74.13;100688.03;5116361;28;20031;-79
2023/12/29 02:45:16;;;;;;;0.13;0.13;;;;;;;11.54;74.33;100682.56;5111873;28;20024;-79
2023/12/29 02:47:43;;;;;;;0.10;0.10;;;;;;;11.54;73.58;100672.84;5101928;28;20617;-79
2023/12/29 02:50:10;;;;;;;0.38;0.38;;;;;;;11.48;73.94;100689.78;5102952;28;20023;-78
2023/12/29 02:52:37;;;;;;;0.10;0.10;;;;;;;11.45;74.20;100694.31;5108257;28;20043;-78
2023/12/29 02:55:03;;;;;;;0.13;0.13;;;;;;;11.62;72.82;100689.41;5110330;28;20930;-78
2023/12/29 02:57:30;;;;;;;0.10;0.10;;;;;;;11.54;73.11;100685.22;5107837;28;20058;-79
2023/12/29 02:59:57;;;;;;;0.10;0.10;;;;;;;11.61;72.80;100693.00;5106417;28;20153;-80
2023/12/29 03:02:23;;;;;;;5.57;2.65;;;;;;;11.56;73.44;100689.59;5110159;28;20126;-80
2023/12/29 03:04:50;;;;;;;0.20;0.20;;;;;;;11.52;72.86;100692.38;5115660;28;20036;-80
2023/12/29 03:07:16;;;;;;;0.10;0.10;;;;;;;11.53;72.94;100695.00;5107567;28;20019;-79
2023/12/29 03:09:42;;;;;;;0.57;0.57;;;;;;;11.63;72.54;100688.50;5106918;28;20040;-80
2023/12/29 03:12:09;;;;;;;0.30;0.30;;;;;;;11.57;72.27;100683.38;5110879;28;20066;-79
2023/12/29 03:14:35;;;;;;;1.55;1.13;;;;;;;11.62;72.56;100675.28;5107809;27;20055;-79
2023/12/29 03:17:01;;;;;;;0.40;0.40;;;;;;;11.78;71.86;100659.81;5117176;28;20027;-80
2023/12/29 03:19:28;;;;;;;0.13;0.13;;;;;;;11.70;72.18;100651.19;5114885;28;20131;-81
2023/12/29 03:21:54;;;;;;;0.10;0.10;;;;;;;11.69;72.03;100673.34;5110656;28;20019;-81
2023/12/29 03:24:20;;;;;;;0.10;0.10;;;;;;;11.70;71.79;100657.38;5115611;28;20118;-80
2023/12/29 03:26:46;;;;;;;0.10;0.10;;;;;;;11.80;71.81;100672.13;5104298;28;20493;-81
2023/12/29 03:29:13;;;;;;;1.85;1.75;;;;;;;11.64;72.52;100665.53;5106353;28;20027;-80
2023/12/29 03:31:40;;;;;;;0.13;0.13;;;;;;;11.76;72.56;100656.34;5103250;28;20387;-80
2023/12/29 03:34:06;;;;;;;0.57;0.57;;;;;;;11.77;72.37;100658.94;5100619;28;20081;-79
2023/12/29 03:36:33;;;;;;;0.10;0.10;;;;;;;11.81;72.04;100654.41;5107829;28;20097;-80
2023/12/29 03:38:59;;;;;;;2.08;1.88;;;;;;;11.62;72.77;100670.84;5107164;28;20035;-79
2023/12/29 03:41:25;;;;;;;0.10;0.10;;;;;;;11.62;73.17;100662.88;5098569;28;20020;-79
2023/12/29 03:43:51;;;;;;;1.38;0.73;;;;;;;11.78;73.11;100666.00;5088741;28;20086;-77
2023/12/29 03:46:19;;;;;;;0.20;0.20;;;;;;;11.91;72.39;100650.59;5092773;28;20035;-78
2023/12/29 03:48:46;;;;;;;0.47;0.47;;;;;;;11.84;72.43;100659.66;5099494;28;20498;-80
2023/12/29 03:51:13;;;;;;;0.10;0.10;;;;;;;11.92;72.24;100665.59;5100789;28;20455;-80
2023/12/29 03:53:39;;;;;;;3.10;1.13;;;;;;;11.83;72.24;100657.91;5096791;28;20036;-80
2023/12/29 03:56:08;;;;;;;2.30;2.17;;;;;;;11.87;72.12;100637.44;5096648;28;20106;-80
2023/12/29 03:58:35;;;;;;;0.10;0.10;;;;;;;11.86;71.84;100641.88;5093921;28;20025;-79
2023/12/29 04:01:02;;;;;;;0.10;0.10;;;;;;;11.98;71.23;100641.56;5093856;28;20092;-79
2023/12/29 04:03:28;;;;;;;0.20;0.20;;;;;;;11.93;71.83;100654.06;5093374;28;20024;-78
2023/12/29 04:05:54;;;;;;;0.40;0.40;;;;;;;11.95;71.22;100648.69;5085114;28;20107;-79
2023/12/29 04:08:20;;;;;;;0.10;0.10;;;;;;;12.08;70.65;100662.56;5097977;28;20597;-77
2023/12/29 04:10:46;;;;;;;0.10;0.10;;;;;;;12.20;70.25;100661.31;5103078;28;20035;-78
2023/12/29 04:13:13;;;;;;;0.77;0.73;;;;;;;12.16;70.54;100655.22;5096178;28;20062;-79
2023/12/29 04:15:39;;;;;;;0.20;0.20;;;;;;;12.20;70.15;100654.22;5089236;28;20029;-80
2023/12/29 04:18:05;;;;;;;0.25;0.25;;;;;;;12.24;70.38;100658.50;5093705;28;20024;-77
2023/12/29 04:20:31;;;;;;;0.10;0.10;;;;;;;12.32;69.62;100665.41;5088869;28;20031;-80
2023/12/29 04:22:57;;;;;;;0.15;0.15;;;;;;;12.34;69.85;100664.44;5088912;28;20019;-79
2023/12/29 04:25:23;;;;;;;0.15;0.15;;;;;;;12.27;69.07;100658.44;5090723;28;20031;-79
2023/12/29 04:27:50;;;;;;;0.10;0.10;;;;;;;12.32;69.22;100654.75;5091619;28;20036;-79
2023/12/29 04:30:16;;;;;;;0.10;0.10;;;;;;;12.33;68.92;100661.81;5087505;28;20024;-80
2023/12/29 04:32:42;;;;;;;1.35;1.25;;;;;;;12.34;68.46;100663.56;5088694;28;20395;-79
2023/12/29 04:35:12;;;;;;;0.60;0.60;;;;;;;12.39;67.77;100656.31;5093094;28;20368;-80
2023/12/29 04:37:38;;;;;;;0.10;0.10;;;;;;;12.38;68.10;100651.94;5091839;28;20028;-79
2023/12/29 04:40:05;;;;;;;0.10;0.10;;;;;;;12.26;67.75;100666.44;5083720;28;20024;-79
2023/12/29 04:42:32;;;;;;;3.80;2.45;;;;;;;12.22;67.01;100660.34;5093191;28;20024;-79
2023/12/29 04:44:58;;;;;;;0.10;0.10;;;;;;;12.32;66.92;100670.72;5089977;28;20024;-78
2023/12/29 04:47:24;;;;;;;6.32;2.08;;;;;;;12.33;66.84;100640.56;5093025;28;20396;-77
2023/12/29 04:49:50;;;;;;;0.10;0.10;;;;;;;12.30;66.70;100644.19;5091597;28;20036;-78
2023/12/29 04:52:17;;;;;;;0.05;0.05;;;;;;;12.35;66.56;100644.91;5084756;28;20029;-79
2023/12/29 04:54:43;;;;;;;1.95;1.85;;;;;;;12.35;66.92;100638.72;5082336;28;20518;-80
2023/12/29 04:57:09;;;;;;;3.75;3.53;;;;;;;12.34;66.19;100637.88;5095648;28;20501;-80
2023/12/29 04:59:35;;;;;;;21.23;2.55;;;;;;;12.32;66.18;100636.16;5092551;28;20031;-79
2023/12/29 05:02:02;;;;;;;0.10;0.10;;;;;;;12.32;66.21;100660.06;5085232;28;20027;-80
2023/12/29 05:04:28;;;;;;;0.50;0.50;;;;;;;12.30;66.66;100653.03;5091003;28;20075;-79
2023/12/29 05:06:54;;;;;;;0.10;0.10;;;;;;;12.44;66.58;100660.56;5090987;28;20036;-81
2023/12/29 05:09:20;;;;;;;0.10;0.10;;;;;;;12.27;66.57;100658.44;5088059;28;20059;-81
2023/12/29 05:11:47;;;;;;;0.85;0.85;;;;;;;12.32;66.64;100662.75;5091035;28;20119;-81
2023/12/29 05:14:13;;;;;;;0.10;0.10;;;;;;;12.40;66.92;100668.66;5089728;28;20023;-80
2023/12/29 05:16:40;;;;;;;1.13;0.98;;;;;;;12.28;66.71;100670.78;5103827;28;20090;-79
2023/12/29 05:19:06;;;;;;;0.10;0.10;;;;;;;12.33;66.57;100672.44;5113454;28;20084;-79
2023/12/29 05:21:32;;;;;;;0.40;0.40;;;;;;;12.33;66.15;100683.94;5098321;28;20008;-80
2023/12/29 05:23:59;;;;;;;0.10;0.10;;;;;;;12.36;66.42;100661.72;5100342;28;20111;-79
2023/12/29 05:26:25;;;;;;;0.10;0.10;;;;;;;12.48;65.89;100650.72;5100897;28;20009;-80
2023/12/29 05:28:51;;;;;;;9.35;2.00;;;;;;;12.26;66.78;100651.38;5098280;28;20084;-81
2023/12/29 05:31:18;;;;;;;0.20;0.20;;;;;;;12.31;66.82;100635.28;5098851;28;20066;-79
2023/12/29 05:33:44;;;;;;;0.15;0.15;;;;;;;12.23;66.83;100656.78;5087210;28;20057;-79
2023/12/29 05:36:11;;;;;;;0.10;0.10;;;;;;;12.29;66.22;100659.25;5086361;28;20458;-79
2023/12/29 05:38:39;;;;;;;0.10;0.10;;;;;;;12.27;66.18;100661.09;5083768;28;20035;-78
2023/12/29 05:41:06;;;;;;;2.03;1.92;;;;;;;12.26;66.87;100663.78;5085940;28;20031;-77
2023/12/29 05:43:33;;;;;;;0.10;0.10;;;;;;;12.26;66.75;100661.13;5091957;28;20047;-77
2023/12/29 05:46:00;;;;;;;0.35;0.35;;;;;;;12.09;67.55;100643.91;5085942;28;20035;-79
2023/12/29 05:48:26;;;;;;;0.10;0.10;;;;;;;12.18;67.16;100637.44;5093391;28;20036;-80
2023/12/29 05:50:53;;;;;;;0.10;0.10;;;;;;;12.17;67.34;100641.03;5095364;28;20028;-81
2023/12/29 05:53:19;;;;;;;0.10;0.10;;;;;;;12.17;67.65;100638.38;5088713;28;20057;-81
2023/12/29 05:55:45;;;;;;;0.15;0.15;;;;;;;12.25;67.35;100633.69;5085521;28;20184;-81
2023/12/29 05:58:12;;;;;;;0.10;0.10;;;;;;;12.18;66.98;100637.44;5091961;28;20543;-79
2023/12/29 06:00:39;;;;;;;1.00;1.00;;;;;;;12.23;67.42;100642.63;5087113;28;20035;-79
2023/12/29 06:03:05;;;;;;;0.10;0.10;;;;;;;12.19;67.99;100639.19;5083948;28;20039;-79
2023/12/29 06:05:33;;;;;;;0.10;0.10;;;;;;;12.08;68.10;100630.69;5085020;28;20028;-80
2023/12/29 06:07:59;;;;;;;0.10;0.10;;;;;;;12.12;67.91;100648.25;5089334;28;20067;-79
2023/12/29 06:10:25;;;;;;;0.10;0.10;;;;;;;12.10;67.85;100640.34;5086653;28;20064;-79
2023/12/29 06:12:51;;;;;;;0.10;0.10;;;;;;;12.04;68.38;100639.66;5088207;28;20039;-79
2023/12/29 06:15:18;;;;;;;0.30;0.30;;;;;;;12.04;68.57;100639.66;5085388;28;20032;-79
2023/12/29 06:17:44;;;;;;;0.25;0.25;;;;;;;11.94;68.19;100629.25;5090621;28;20028;-80
2023/12/29 06:20:11;;;;;;;0.10;0.10;;;;;;;12.05;68.54;100631.66;5096916;28;20043;-79
2023/12/29 06:22:41;;;;;;;0.10;0.10;;;;;;;12.04;68.39;100623.72;5095109;28;20032;-79
2023/12/29 06:25:11;;;;;;;0.10;0.10;;;;;;;11.99;68.36;100631.81;5088694;28;20024;-79
2023/12/29 06:27:38;;;;;;;0.10;0.10;;;;;;;11.98;68.35;100638.91;5086976;28;20487;-81
2023/12/29 06:30:06;;;;;;;0.10;0.10;;;;;;;11.97;68.77;100636.28;5098436;28;20039;-77
2023/12/29 06:32:33;;;;;;;0.10;0.10;;;;;;;11.99;68.59;100610.59;5098601;28;20053;-79
2023/12/29 06:34:59;;;;;;;0.40;0.40;;;;;;;12.03;68.17;100622.84;5099169;28;20039;-80
2023/12/29 06:37:25;;;;;;;0.10;0.10;;;;;;;12.15;68.11;100611.00;5108045;28;20024;-80
2023/12/29 06:39:51;;;;;;;0.10;0.10;;;;;;;11.91;68.79;100613.44;5112300;28;20028;-80
2023/12/29 06:42:17;;;;;;;0.10;0.10;;;;;;;12.13;68.63;100612.81;5105362;28;20132;-80
2023/12/29 06:44:43;;;;;;;0.10;0.10;;;;;;;12.12;68.04;100621.69;5107484;28;20505;-80
2023/12/29 06:47:11;;;;;;;0.10;0.10;;;;;;;12.08;68.44;100646.63;5099163;28;20035;-80
2023/12/29 06:49:37;;;;;;;0.25;0.25;;;;;;;12.19;68.31;100633.03;5101403;28;20036;-79
2023/12/29 06:52:03;;;;;;;0.75;0.75;;;;;;;12.14;68.49;100631.34;5090819;28;20024;-79
2023/12/29 06:54:29;;;;;;;0.10;0.10;;;;;;;11.98;69.32;100633.59;5099605;28;20036;-80
2023/12/29 06:56:55;;;;;;;0.10;0.10;;;;;;;12.05;69.29;100636.06;5098310;28;20028;-80
2023/12/29 06:59:23;;;;;;;0.20;0.20;;;;;;;11.94;70.09;100626.59;5087210;28;20078;-80
2023/12/29 07:01:49;;;;;;;0.10;0.10;;;;;;;11.97;70.42;100631.00;5087947;28;20043;-80
2023/12/29 07:04:15;;;;;;;0.10;0.10;;;;;;;12.08;69.50;100630.69;5090552;28;20023;-80
2023/12/29 07:06:42;;;;;;;0.40;0.40;;;;;;;11.93;70.08;100642.59;5106270;28;20024;-80
2023/12/29 07:09:09;;;;;;;0.10;0.10;;;;;;;12.08;69.79;100644.81;5098140;28;20058;-80
2023/12/29 07:11:36;;;;;;;0.10;0.10;;;;;;;11.98;70.03;100635.38;5092562;28;20028;-80
2023/12/29 07:14:02;;;;;;;0.10;0.10;;;;;;;11.93;70.51;100632.81;5101694;28;20031;-81
2023/12/29 07:16:29;;;;;;;0.17;0.17;;;;;;;11.76;71.31;100651.03;5093719;28;20024;-80
2023/12/29 07:18:55;;;;;;;0.10;0.10;;;;;;;11.89;70.76;100641.81;5105492;28;20487;-80
2023/12/29 07:21:21;;;;;;;0.10;0.10;;;;;;;11.91;71.04;100644.41;5108529;28;20020;-79
2023/12/29 07:23:47;;;;;;;0.10;0.10;;;;;;;11.80;71.22;100631.44;5107112;28;20028;-79
2023/12/29 07:26:14;;;;;;;0.20;0.20;;;;;;;11.82;71.11;100632.28;5101615;28;20070;-81
2023/12/29 07:28:40;;;;;;;0.10;0.10;;;;;;;11.83;71.60;100626.06;5109316;28;20151;-79
2023/12/29 07:31:08;;;;;;;2.97;1.27;;;;;;;11.78;71.68;100631.47;5122520;28;20061;-79
2023/12/29 07:33:35;;;;;;;0.10;0.10;;;;;;;11.84;71.57;100617.19;5111102;28;20039;-79
2023/12/29 07:36:01;;;;;;;0.10;0.10;;;;;;;11.81;71.74;100625.22;5117373;28;20038;-82
2023/12/29 07:38:27;;;;;;;0.10;0.10;;;;;;;11.83;71.89;100628.72;5110159;28;20133;-84
2023/12/29 07:40:53;;;;;;;0.10;0.10;;;;;;;11.96;71.32;100632.78;5110439;28;20032;-84
2023/12/29 07:43:19;;;;;;;0.20;0.20;;;;;;;12.01;70.70;100618.50;5102839;28;20039;-81
2023/12/29 07:45:45;;;;;;;20.92;1.23;;;;;;;12.00;70.61;100627.38;5104380;28;20028;-81
2023/12/29 07:48:12;;;;;;;0.10;0.10;;;;;;;12.03;70.81;100629.94;5100180;28;20086;-82
2023/12/29 07:50:38;;;;;;;0.10;0.10;;;;;;;11.92;71.47;100636.38;5100410;28;20030;-81
2023/12/29 07:53:05;;;;;;;1.15;0.82;;;;;;;12.07;70.78;100631.59;5096037;28;20099;-81
2023/12/29 07:55:32;;;;;;;0.20;0.20;;;;;;;12.08;71.00;100636.00;5104024;28;20028;-80
2023/12/29 07:57:58;;;;;;;0.65;0.65;;;;;;;12.07;71.22;100637.75;5117061;28;20028;-78
2023/12/29 08:00:24;;;;;;;0.10;0.10;;;;;;;12.12;70.80;100637.63;5098036;28;20036;-78
2023/12/29 08:02:51;;;;;;;0.13;0.13;;;;;;;12.13;70.92;100639.38;5111075;28;20402;-80
2023/12/29 08:05:17;;;;;;;0.40;0.40;;;;;;;12.09;71.14;100648.38;5106623;28;20039;-79
2023/12/29 08:07:43;;;;;;;0.10;0.10;;;;;;;12.02;71.15;100644.13;5097020;28;20096;-81
2023/12/29 08:10:10;;;;;;;0.20;0.20;;;;;;;12.10;71.37;100642.09;5098631;28;20050;-79
2023/12/29 08:12:36;;;;;;;0.20;0.20;;;;;;;12.10;70.95;100650.06;5099895;28;20028;-81
2023/12/29 08:15:03;;;;;;;0.15;0.15;;;;;;;12.18;71.17;100648.06;5099438;28;20028;-80
2023/12/29 08:17:31;;;;;;;0.20;0.20;;;;;;;12.18;70.71;100647.22;5105469;28;20513;-83
2023/12/29 08:19:57;;;;;;;0.10;0.10;;;;;;;12.19;70.58;100660.44;5104417;28;20025;-81
2023/12/29 08:22:23;;;;;;;0.15;0.15;;;;;;;12.24;71.02;100655.88;5102594;28;20051;-81
2023/12/29 08:24:49;;;;;;;5.50;2.70;;;;;;;12.26;70.84;100655.81;5091288;28;20078;-82
2023/12/29 08:27:22;;;;;;;0.10;0.10;;;;;;;12.20;71.13;100662.19;5103389;28;20069;-81
2023/12/29 08:29:48;;;;;;;0.10;0.10;;;;;;;12.20;70.82;100667.50;5094925;28;20028;-82
2023/12/29 08:32:14;;;;;;;0.28;0.28;;;;;;;12.13;71.35;100665.94;5094709;28;20025;-79
2023/12/29 08:34:41;;;;;;;0.10;0.10;;;;;;;12.09;71.22;100669.59;5104652;28;20032;-78
2023/12/29 08:37:07;;;;;;;0.30;0.30;;;;;;;12.01;71.57;100661.84;5104976;28;20054;-81
2023/12/29 08:39:33;;;;;;;0.10;0.10;;;;;;;11.97;71.80;100655.78;5100735;28;20042;-79
2023/12/29 08:41:59;;;;;;;0.10;0.10;;;;;;;11.88;71.73;100658.63;5098248;28;20027;-82
2023/12/29 08:44:25;;;;;;;1.23;0.77;;;;;;;12.05;71.53;100658.19;5104227;28;20036;-82
2023/12/29 08:46:51;;;;;;;0.10;0.10;;;;;;;11.91;71.42;100677.16;5102577;28;20035;-82
2023/12/29 08:49:18;;;;;;;0.10;0.10;;;;;;;11.93;71.18;100664.69;5099821;28;20039;-83
2023/12/29 08:51:44;;;;;;;0.10;0.10;;;;;;;11.89;71.93;100683.44;5111217;28;20024;-81
2023/12/29 08:54:10;;;;;;;0.43;0.43;;;;;;;12.11;71.08;100689.00;5117170;28;20016;-82
2023/12/29 08:56:37;;;;;;;0.25;0.25;;;;;;;12.09;70.75;100682.88;5116477;28;20040;-78
2023/12/29 08:59:03;;;;;;;0.47;0.47;;;;;;;12.14;70.90;100683.63;5109551;28;20032;-79
2023/12/29 09:01:29;;;;;;;0.10;0.10;;;;;;;12.10;70.77;100681.94;5108107;28;20024;-80
2023/12/29 09:03:55;;;;;;;0.10;0.10;;;;;;;12.18;71.40;100690.56;5103068;28;20046;-81
2023/12/29 09:06:21;;;;;;;0.10;0.10;;;;;;;12.25;70.30;100676.19;5102371;28;20088;-82
2023/12/29 09:08:47;;;;;;;0.10;0.10;;;;;;;12.14;70.92;100680.97;5103510;28;20035;-82
2023/12/29 09:11:13;;;;;;;0.20;0.20;;;;;;;12.31;70.17;100691.06;5101576;28;20028;-82
2023/12/29 09:13:40;;;;;;;0.10;0.10;;;;;;;12.20;70.45;100699.38;5103427;28;20420;-82
2023/12/29 09:16:06;;;;;;;0.10;0.10;;;;;;;12.23;70.51;100698.41;5104603;28;20088;-80
2023/12/29 09:18:33;;;;;;;0.10;0.10;;;;;;;12.30;70.22;100697.31;5105008;28;20028;-81
2023/12/29 09:20:59;;;;;;;0.15;0.15;;;;;;;12.29;70.17;100685.81;5105766;28;20074;-79
2023/12/29 09:23:25;;;;;;;0.10;0.10;;;;;;;12.21;70.42;100687.84;5101495;28;20060;-80
2023/12/29 09:25:52;;;;;;;0.10;0.10;;;;;;;12.43;70.10;100700.47;5106445;28;20024;-80
2023/12/29 09:28:19;;;;;;;0.13;0.13;;;;;;;12.33;69.92;100685.75;5106999;28;20024;-79
2023/12/29 09:30:45;;;;;;;0.10;0.10;;;;;;;12.44;69.83;100696.91;5106549;28;20427;-80
2023/12/29 09:33:12;;;;;;;0.15;0.15;;;;;;;12.50;69.42;100691.41;5103572;28;20126;-80
2023/12/29 09:35:39;;;;;;;0.50;0.50;;;;;;;12.48;69.95;100703.88;5108060;28;20020;-79
2023/12/29 09:38:09;;;;;;;0.20;0.20;;;;;;;12.56;69.01;100712.47;5098308;28;20050;-78
2023/12/29 09:40:36;;;;;;;0.10;0.10;;;;;;;12.55;69.32;100704.56;5098957;28;20035;-80
2023/12/29 09:43:04;;;;;;;0.10;0.10;;;;;;;12.61;69.31;100705.25;5097403;28;20124;-81
2023/12/29 09:45:33;;;;;;;0.10;0.10;;;;;;;12.64;69.24;100719.34;5091587;28;20020;-80
2023/12/29 09:48:02;;;;;;;0.10;0.10;;;;;;;12.60;69.10;100721.25;5097011;28;20016;-80
2023/12/29 09:50:29;;;;;;;0.10;0.10;;;;;;;12.61;69.11;100726.50;5091414;28;20029;-80
2023/12/29 09:52:57;;;;;;;0.30;0.30;;;;;;;12.64;69.46;100722.03;5100774;28;20433;-80
2023/12/29 09:55:30;;;;;;;0.10;0.10;;;;;;;12.76;68.93;100713.63;5100936;28;20084;-79
2023/12/29 09:57:59;;;;;;;0.10;0.10;;;;;;;12.79;68.81;100718.88;5104843;28;20136;-80
2023/12/29 10:00:26;;;;;;;0.00;0.00;;;;;;;12.81;68.47;100733.00;5095153;28;20031;-81
2023/12/29 10:02:54;;;;;;;0.10;0.10;;;;;;;12.82;68.54;100721.41;5103697;28;20479;-79
2023/12/29 10:05:20;;;;;;;0.10;0.10;;;;;;;12.75;68.32;100722.56;5100264;28;20024;-77
2023/12/29 10:07:47;;;;;;;0.13;0.13;;;;;;;12.98;68.05;100728.94;5093641;28;20096;-79
2023/12/29 10:10:16;;;;;;;0.10;0.10;;;;;;;12.88;67.74;100731.88;5091002;28;20024;-80
2023/12/29 10:12:47;;;;;;;0.60;0.60;;;;;;;12.99;67.60;100731.53;5091807;28;20032;-81
2023/12/29 10:15:21;;;;;;;0.45;0.45;;;;;;;13.03;67.51;100737.63;5090498;28;20047;-79
2023/12/29 10:18:14;;;;;;;0.10;0.10;;;;;;;13.05;67.03;100751.75;5091512;28;20035;-79
2023/12/29 10:21:03;;;;;;;0.65;0.65;;;;;;;13.10;66.56;100740.03;5093383;28;20050;-79
2023/12/29 10:26:11;;;;;;;0.10;0.10;;;;;;;13.07;66.20;100733.94;5118167;27;20407;-79
2023/12/29 10:28:37;;;;;;;0.10;0.10;;;;;;;12.96;66.55;100731.66;5125679;28;20057;-81
2023/12/29 10:31:05;;;;;;;0.10;0.10;;;;;;;13.01;66.75;100734.13;5101164;28;20031;-79
2023/12/29 10:33:32;;;;;;;0.20;0.20;;;;;;;13.08;66.10;100743.66;5101197;28;20107;-85
2023/12/29 10:36:05;;;;;;;0.30;0.30;;;;;;;13.17;66.01;100747.81;5103968;28;20032;-81
2023/12/29 10:38:31;;;;;;;0.30;0.30;;;;;;;13.20;65.73;100743.28;5099631;28;20028;-81
2023/12/29 10:41:18;;;;;;;0.10;0.10;;;;;;;13.39;65.72;100756.00;5095901;28;20036;-79
2023/12/29 10:43:47;;;;;;;0.10;0.10;;;;;;;13.21;65.84;100749.47;5100029;28;20024;-81
2023/12/29 10:46:13;;;;;;;0.10;0.10;;;;;;;13.09;65.46;100753.41;5096321;28;20020;-82
2023/12/29 10:48:39;;;;;;;0.10;0.10;;;;;;;13.31;65.13;100748.25;5091662;28;20058;-81
2023/12/29 10:51:06;;;;;;;0.10;0.10;;;;;;;13.21;65.20;100758.31;5090587;28;20038;-78
2023/12/29 10:53:34;;;;;;;1.63;1.55;;;;;;;13.16;64.66;100741.63;5085835;28;20025;-82
2023/12/29 10:56:00;;;;;;;0.10;0.10;;;;;;;13.27;63.35;100758.13;5091152;28;20039;-78
2023/12/29 10:58:29;;;;;;;0.20;0.20;;;;;;;13.26;63.95;100755.53;5090347;28;20052;-76
2023/12/29 11:00:56;;;;;;;0.20;0.20;;;;;;;13.32;63.97;100755.31;5092224;28;20024;-76
2023/12/29 11:03:24;;;;;;;0.30;0.30;;;;;;;13.45;63.42;100749.63;5102491;28;20403;-78
2023/12/29 11:05:51;;;;;;;0.20;0.20;;;;;;;13.35;63.60;100754.34;5095916;28;20029;-80
2023/12/29 11:08:19;;;;;;;0.10;0.10;;;;;;;13.47;63.22;100758.41;5102036;28;20021;-79
2023/12/29 11:10:48;;;;;;;0.10;0.10;;;;;;;13.43;63.66;100753.19;5100585;28;20032;-79
2023/12/29 11:13:14;;;;;;;6.40;1.17;;;;;;;13.34;64.03;100768.56;5098562;28;20028;-77
2023/12/29 11:15:45;;;;;;;0.10;0.10;;;;;;;13.42;64.32;100737.25;5101976;28;20020;-77
2023/12/29 11:18:15;;;;;;;0.52;0.52;;;;;;;13.56;63.96;100744.81;5096991;28;20040;-79
2023/12/29 11:20:42;;;;;;;1.80;0.90;;;;;;;13.50;63.81;100743.22;5098090;28;20032;-80
2023/12/29 11:23:13;;;;;;;0.10;0.10;;;;;;;13.54;64.03;100749.31;5095823;28;20032;-80
2023/12/29 11:25:39;;;;;;;0.10;0.10;;;;;;;13.32;64.16;100760.63;5100080;28;20053;-79
2023/12/29 11:28:09;;;;;;;0.10;0.10;;;;;;;13.40;64.04;100752.44;5100044;28;20153;-76
2023/12/29 11:30:37;;;;;;;0.10;0.10;;;;;;;13.51;64.19;100758.25;5102230;28;20020;-80